createdAt,value
2018-08-27T00:00:41.725Z,11.30
2018-08-27T00:03:09.918Z,11.30
2018-08-27T00:05:38.005Z,11.30
2018-08-27T00:08:06.092Z,11.30
2018-08-27T00:10:34.070Z,11.30
2018-08-27T00:13:02.078Z,11.40
2018-08-27T00:15:30.121Z,11.50
2018-08-27T00:17:58.113Z,11.60
2018-08-27T00:23:17.396Z,11.60
2018-08-27T00:25:45.729Z,11.60
2018-08-27T00:28:13.728Z,11.50
2018-08-27T00:30:41.733Z,11.40
2018-08-27T00:33:09.778Z,11.40
2018-08-27T00:35:37.779Z,11.40
2018-08-27T00:38:05.817Z,11.60
2018-08-27T00:40:33.852Z,11.60
2018-08-27T00:43:01.872Z,11.50
2018-08-27T00:45:30.259Z,11.60
2018-08-27T00:47:58.329Z,11.70
2018-08-27T00:50:26.421Z,11.60
2018-08-27T00:52:54.513Z,11.50
2018-08-27T00:55:22.597Z,11.50
2018-08-27T00:57:50.634Z,11.40
2018-08-27T01:00:18.674Z,11.40
2018-08-27T01:02:46.748Z,11.40
2018-08-27T01:05:14.805Z,11.40
2018-08-27T01:07:42.834Z,11.40
2018-08-27T01:10:10.901Z,11.50
2018-08-27T01:12:38.981Z,11.70
2018-08-27T01:15:07.785Z,11.70
2018-08-27T01:17:35.789Z,11.70
2018-08-27T01:20:03.803Z,11.80
2018-08-27T01:22:31.889Z,11.80
2018-08-27T01:24:59.918Z,11.70
2018-08-27T01:27:27.962Z,11.80
2018-08-27T01:29:56.061Z,11.80
2018-08-27T01:32:25.341Z,11.80
2018-08-27T01:34:53.400Z,11.70
2018-08-27T01:37:21.396Z,11.70
2018-08-27T01:39:49.430Z,11.70
2018-08-27T01:42:17.526Z,11.80
2018-08-27T01:44:45.561Z,12.10
2018-08-27T01:47:13.597Z,12.10
2018-08-27T01:49:41.645Z,12.10
2018-08-27T01:52:09.972Z,12.00
2018-08-27T01:54:37.989Z,11.90
2018-08-27T01:57:06.114Z,11.90
2018-08-27T01:59:34.162Z,11.80
2018-08-27T02:02:02.201Z,11.80
2018-08-27T02:04:30.241Z,11.70
2018-08-27T02:06:58.249Z,11.70
2018-08-27T02:09:26.789Z,11.70
2018-08-27T02:11:57.639Z,11.70
2018-08-27T02:14:26.609Z,11.70
2018-08-27T02:16:54.834Z,11.80
2018-08-27T02:19:23.065Z,11.70
2018-08-27T02:21:51.276Z,11.70
2018-08-27T02:24:19.469Z,11.70
2018-08-27T02:26:47.541Z,11.70
2018-08-27T02:29:15.653Z,11.70
2018-08-27T02:31:43.853Z,11.60
2018-08-27T02:34:11.853Z,11.60
2018-08-27T02:36:39.899Z,11.80
2018-08-27T02:39:09.884Z,11.80
2018-08-27T02:41:37.897Z,11.70
2018-08-27T02:44:05.949Z,11.70
2018-08-27T02:46:34.242Z,11.70
2018-08-27T02:49:02.280Z,11.60
2018-08-27T02:51:30.301Z,11.60
2018-08-27T02:53:58.484Z,11.50
2018-08-27T02:56:26.537Z,11.50
2018-08-27T02:58:54.572Z,11.50
2018-08-27T03:01:22.675Z,11.60
2018-08-27T03:03:50.700Z,11.40
2018-08-27T03:06:18.837Z,11.40
2018-08-27T03:08:46.881Z,11.30
2018-08-27T03:11:14.868Z,11.20
2018-08-27T03:13:42.925Z,11.30
2018-08-27T03:16:10.929Z,11.20
2018-08-27T03:18:38.980Z,11.20
2018-08-27T03:21:07.142Z,11.20
2018-08-27T03:23:35.182Z,11.10
2018-08-27T03:26:03.205Z,11.10
2018-08-27T03:28:31.298Z,11.00
2018-08-27T03:30:59.373Z,11.00
2018-08-27T03:33:27.712Z,11.00
2018-08-27T03:35:55.729Z,11.00
2018-08-27T03:38:23.832Z,11.00
2018-08-27T03:40:51.877Z,10.90
2018-08-27T03:43:19.982Z,11.00
2018-08-27T03:45:48.049Z,11.10
2018-08-27T03:48:16.077Z,11.10
2018-08-27T03:50:44.114Z,11.20
2018-08-27T03:53:12.162Z,11.20
2018-08-27T03:55:40.161Z,11.20
2018-08-27T03:58:08.201Z,11.20
2018-08-27T04:00:36.400Z,11.20
2018-08-27T04:03:04.706Z,11.20
2018-08-27T04:05:32.741Z,11.10
2018-08-27T04:08:00.845Z,11.10
2018-08-27T04:10:29.162Z,11.10
2018-08-27T04:12:57.159Z,11.10
2018-08-27T04:15:25.169Z,11.10
2018-08-27T04:17:53.489Z,11.10
2018-08-27T04:20:21.573Z,11.10
2018-08-27T04:22:49.578Z,11.00
2018-08-27T04:25:17.745Z,11.10
2018-08-27T04:27:45.743Z,11.00
2018-08-27T04:30:13.797Z,11.00
2018-08-27T04:32:41.793Z,11.00
2018-08-27T04:35:09.843Z,11.10
2018-08-27T04:37:37.850Z,11.10
2018-08-27T04:40:05.956Z,11.20
2018-08-27T04:42:34.065Z,11.30
2018-08-27T04:45:02.038Z,11.50
2018-08-27T04:47:30.092Z,11.70
2018-08-27T04:49:58.182Z,11.80
2018-08-27T04:52:26.226Z,12.10
2018-08-27T04:54:54.258Z,12.20
2018-08-27T04:57:22.310Z,12.30
2018-08-27T04:59:53.694Z,12.50
2018-08-27T05:02:21.740Z,12.60
2018-08-27T05:04:49.780Z,12.70
2018-08-27T05:07:17.799Z,12.90
2018-08-27T05:09:45.805Z,13.10
2018-08-27T05:12:13.846Z,13.30
2018-08-27T05:14:42.240Z,13.20
2018-08-27T05:17:10.258Z,13.10
2018-08-27T05:19:38.361Z,12.90
2018-08-27T05:22:06.609Z,13.00
2018-08-27T05:24:34.661Z,13.00
2018-08-27T05:27:02.669Z,13.00
2018-08-27T05:29:30.729Z,13.30
2018-08-27T05:31:58.781Z,13.60
2018-08-27T05:34:26.851Z,13.50
2018-08-27T05:36:54.885Z,13.60
2018-08-27T05:39:22.933Z,13.70
2018-08-27T05:41:50.969Z,13.80
2018-08-27T05:44:19.021Z,13.80
2018-08-27T05:46:47.016Z,13.90
2018-08-27T05:49:15.057Z,14.00
2018-08-27T05:51:43.064Z,13.90
2018-08-27T05:54:11.141Z,13.90
2018-08-27T05:56:39.162Z,13.90
2018-08-27T05:59:07.202Z,14.00
2018-08-27T06:01:35.268Z,14.10
2018-08-27T06:04:03.244Z,14.10
2018-08-27T06:06:31.658Z,14.10
2018-08-27T06:08:59.664Z,14.20
2018-08-27T06:11:27.689Z,14.30
2018-08-27T06:13:55.725Z,14.20
2018-08-27T06:16:23.825Z,14.40
2018-08-27T06:18:51.765Z,14.50
2018-08-27T06:21:19.792Z,14.60
2018-08-27T06:23:47.831Z,14.60
2018-08-27T06:26:15.870Z,14.70
2018-08-27T06:28:43.929Z,14.70
2018-08-27T06:31:11.986Z,14.70
2018-08-27T06:33:40.018Z,14.70
2018-08-27T06:36:08.055Z,14.60
2018-08-27T06:38:36.069Z,14.60
2018-08-27T06:41:04.225Z,14.60
2018-08-27T06:43:32.226Z,14.70
2018-08-27T06:46:00.283Z,14.80
2018-08-27T06:48:28.313Z,14.90
2018-08-27T06:50:56.317Z,15.20
2018-08-27T06:53:24.331Z,15.70
2018-08-27T06:55:52.405Z,16.20
2018-08-27T06:58:20.502Z,16.70
2018-08-27T07:00:48.541Z,17.10
2018-08-27T07:03:16.540Z,17.50
2018-08-27T07:05:44.638Z,17.70
2018-08-27T07:08:12.739Z,18.10
2018-08-27T07:10:40.800Z,18.00
2018-08-27T07:13:08.798Z,17.80
2018-08-27T07:15:37.085Z,17.70
2018-08-27T07:18:05.294Z,17.60
2018-08-27T07:20:33.292Z,17.60
2018-08-27T07:23:01.342Z,17.60
2018-08-27T07:25:29.561Z,17.80
2018-08-27T07:27:57.923Z,18.10
2018-08-27T07:30:25.955Z,18.50
2018-08-27T07:32:53.961Z,18.70
2018-08-27T07:35:22.028Z,18.80
2018-08-27T07:37:50.244Z,18.60
2018-08-27T07:40:18.286Z,18.60
2018-08-27T07:42:46.281Z,18.50
2018-08-27T07:45:14.281Z,18.50
2018-08-27T07:47:42.336Z,18.50
2018-08-27T07:50:10.377Z,18.60
2018-08-27T07:52:38.426Z,18.90
2018-08-27T07:55:06.733Z,19.20
2018-08-27T07:57:34.785Z,19.30
2018-08-27T08:00:02.949Z,19.30
2018-08-27T08:02:30.958Z,19.40
2018-08-27T08:04:59.182Z,19.60
2018-08-27T08:07:27.206Z,19.60
2018-08-27T08:09:55.250Z,19.60
2018-08-27T08:12:23.289Z,19.80
2018-08-27T08:14:51.837Z,19.60
2018-08-27T08:17:19.968Z,19.60
2018-08-27T08:19:47.970Z,19.60
2018-08-27T08:22:15.996Z,19.60
2018-08-27T08:24:44.038Z,19.70
2018-08-27T08:27:12.086Z,19.70
2018-08-27T08:29:40.088Z,19.70
2018-08-27T08:32:08.090Z,19.70
2018-08-27T08:34:36.125Z,19.70
2018-08-27T08:37:04.178Z,19.80
2018-08-27T08:39:32.210Z,19.90
2018-08-27T08:42:00.248Z,20.00
2018-08-27T08:44:28.321Z,20.00
2018-08-27T08:46:56.411Z,20.00
2018-08-27T08:49:24.549Z,19.90
2018-08-27T08:51:52.555Z,19.80
2018-08-27T08:54:20.553Z,19.90
2018-08-27T08:56:48.576Z,20.20
2018-08-27T08:59:16.665Z,20.50
2018-08-27T09:01:45.288Z,20.80
2018-08-27T09:04:13.306Z,21.30
2018-08-27T09:06:41.309Z,21.40
2018-08-27T09:09:10.124Z,21.50
2018-08-27T09:11:38.149Z,21.50
2018-08-27T09:14:06.215Z,21.40
2018-08-27T09:16:34.757Z,21.60
2018-08-27T09:19:02.722Z,21.70
2018-08-27T09:21:30.906Z,21.50
2018-08-27T09:23:58.993Z,21.40
2018-08-27T09:26:27.010Z,21.50
2018-08-27T09:28:55.063Z,21.60
2018-08-27T09:31:23.111Z,21.80
2018-08-27T09:33:51.194Z,21.70
2018-08-27T09:36:19.245Z,21.90
2018-08-27T09:38:47.296Z,22.30
2018-08-27T09:41:15.329Z,22.30
2018-08-27T09:43:43.366Z,22.30
2018-08-27T09:46:11.449Z,22.30
2018-08-27T09:48:39.594Z,22.20
2018-08-27T09:51:07.617Z,22.30
2018-08-27T09:53:35.681Z,22.40
2018-08-27T09:56:03.685Z,22.40
2018-08-27T09:58:32.021Z,22.20
2018-08-27T10:01:05.550Z,22.20
2018-08-27T10:03:40.438Z,22.20
2018-08-27T10:06:08.474Z,22.30
2018-08-27T10:08:36.485Z,22.30
2018-08-27T10:11:04.497Z,22.30
2018-08-27T10:13:32.620Z,22.30
2018-08-27T10:16:00.646Z,22.30
2018-08-27T10:18:28.705Z,22.40
2018-08-27T10:20:56.769Z,22.50
2018-08-27T10:23:24.801Z,22.40
2018-08-27T10:25:52.846Z,22.40
2018-08-27T10:28:20.836Z,22.30
2018-08-27T10:30:48.840Z,22.20
2018-08-27T10:33:16.882Z,22.30
2018-08-27T10:35:45.230Z,22.20
2018-08-27T10:38:13.236Z,22.20
2018-08-27T10:40:41.370Z,22.30
2018-08-27T10:43:09.408Z,22.10
2018-08-27T10:45:37.409Z,21.90
2018-08-27T10:48:05.581Z,21.80
2018-08-27T10:50:33.980Z,21.90
2018-08-27T10:53:01.939Z,22.10
2018-08-27T10:55:29.933Z,22.50
2018-08-27T10:57:57.973Z,22.90
2018-08-27T11:00:26.061Z,23.40
2018-08-27T11:02:54.096Z,23.60
2018-08-27T11:05:22.093Z,23.50
2018-08-27T11:07:51.029Z,23.90
2018-08-27T11:10:19.424Z,24.00
2018-08-27T11:12:47.614Z,24.30
2018-08-27T11:15:16.245Z,24.50
2018-08-27T11:17:44.289Z,24.50
2018-08-27T11:20:12.474Z,24.20
2018-08-27T11:22:40.468Z,24.10
2018-08-27T11:25:08.701Z,24.00
2018-08-27T11:27:36.764Z,23.80
2018-08-27T11:30:05.637Z,23.70
2018-08-27T11:32:33.633Z,23.30
2018-08-27T11:35:02.060Z,23.10
2018-08-27T11:37:30.093Z,23.20
2018-08-27T11:40:08.036Z,23.20
2018-08-27T11:42:37.429Z,23.30
2018-08-27T11:45:05.510Z,23.30
2018-08-27T11:47:33.541Z,23.10
2018-08-27T11:50:01.599Z,23.20
2018-08-27T11:52:29.946Z,23.20
2018-08-27T11:54:58.026Z,23.10
2018-08-27T11:57:25.969Z,23.00
2018-08-27T11:59:54.026Z,23.10
2018-08-27T12:02:22.044Z,23.10
2018-08-27T12:04:50.065Z,23.40
2018-08-27T12:07:18.163Z,23.30
2018-08-27T12:09:46.210Z,23.10
2018-08-27T12:12:14.224Z,23.10
2018-08-27T12:14:42.265Z,22.90
2018-08-27T12:17:10.318Z,22.80
2018-08-27T12:19:38.369Z,22.80
2018-08-27T12:22:06.457Z,22.80
2018-08-27T12:24:34.459Z,22.60
2018-08-27T12:27:02.485Z,22.60
2018-08-27T12:29:30.525Z,22.60
2018-08-27T12:31:58.590Z,22.70
2018-08-27T12:34:26.672Z,22.60
2018-08-27T12:36:54.721Z,22.70
2018-08-27T12:39:22.974Z,22.60
2018-08-27T12:41:51.089Z,22.40
2018-08-27T12:44:19.101Z,22.40
2018-08-27T12:46:47.137Z,22.40
2018-08-27T12:49:15.449Z,22.50
2018-08-27T12:51:43.490Z,22.80
2018-08-27T12:54:11.521Z,22.90
2018-08-27T12:56:39.518Z,23.10
2018-08-27T12:59:07.618Z,23.10
2018-08-27T13:01:35.616Z,23.20
2018-08-27T13:04:03.818Z,23.30
2018-08-27T13:06:31.836Z,23.40
2018-08-27T13:08:59.850Z,23.50
2018-08-27T13:11:27.935Z,23.80
2018-08-27T13:13:55.909Z,24.00
2018-08-27T13:16:23.956Z,24.00
2018-08-27T13:18:51.982Z,24.00
2018-08-27T13:21:25.386Z,23.70
2018-08-27T13:23:53.609Z,23.50
2018-08-27T13:26:21.661Z,23.50
2018-08-27T13:28:49.689Z,23.40
2018-08-27T13:31:17.788Z,23.30
2018-08-27T13:33:45.757Z,23.00
2018-08-27T13:36:14.107Z,22.90
2018-08-27T13:38:42.161Z,22.90
2018-08-27T13:41:10.478Z,23.00
2018-08-27T13:43:38.556Z,23.00
2018-08-27T13:46:06.845Z,22.80
2018-08-27T13:48:34.899Z,22.80
2018-08-27T13:51:02.914Z,22.80
2018-08-27T13:53:30.919Z,22.90
2018-08-27T13:55:59.289Z,22.80
2018-08-27T13:58:27.289Z,22.80
2018-08-27T14:00:55.359Z,22.80
2018-08-27T14:03:23.398Z,22.70
2018-08-27T14:05:51.402Z,22.70
2018-08-27T14:08:19.454Z,22.60
2018-08-27T14:10:47.496Z,22.70
2018-08-27T14:13:15.463Z,22.70
2018-08-27T14:15:43.624Z,22.80
2018-08-27T14:18:11.578Z,22.80
2018-08-27T14:20:39.906Z,23.00
2018-08-27T14:23:07.892Z,23.20
2018-08-27T14:25:35.950Z,23.30
2018-08-27T14:28:03.975Z,23.40
2018-08-27T14:30:32.053Z,23.60
2018-08-27T14:33:00.197Z,23.70
2018-08-27T14:35:28.193Z,23.70
2018-08-27T14:37:56.189Z,23.50
2018-08-27T14:40:24.285Z,23.60
2018-08-27T14:42:52.281Z,23.50
2018-08-27T14:45:20.371Z,23.40
2018-08-27T14:47:48.516Z,23.50
2018-08-27T14:50:17.615Z,23.50
2018-08-27T14:52:45.635Z,23.30
2018-08-27T14:55:13.774Z,23.30
2018-08-27T14:57:41.769Z,23.30
2018-08-27T15:00:10.489Z,23.20
2018-08-27T15:02:38.543Z,23.10
2018-08-27T15:05:06.998Z,22.80
2018-08-27T15:07:35.161Z,22.40
2018-08-27T15:10:03.211Z,22.10
2018-08-27T15:12:31.226Z,21.90
2018-08-27T15:14:59.273Z,22.00
2018-08-27T15:17:27.274Z,22.20
2018-08-27T15:19:55.280Z,22.40
2018-08-27T15:22:23.329Z,22.50
2018-08-27T15:24:51.348Z,22.60
2018-08-27T15:27:19.406Z,22.70
2018-08-27T15:29:48.348Z,22.80
2018-08-27T15:32:16.353Z,22.90
2018-08-27T15:34:44.697Z,22.90
2018-08-27T15:37:12.967Z,23.00
2018-08-27T15:39:40.938Z,22.90
2018-08-27T15:42:09.096Z,22.90
2018-08-27T15:44:37.167Z,23.00
2018-08-27T15:47:05.234Z,23.10
2018-08-27T15:49:33.239Z,23.20
2018-08-27T15:52:01.274Z,23.30
2018-08-27T15:54:29.322Z,23.10
2018-08-27T15:56:57.311Z,23.10
2018-08-27T15:59:25.646Z,23.20
2018-08-27T16:01:54.753Z,23.30
2018-08-27T16:04:22.809Z,23.30
2018-08-27T16:06:50.855Z,23.30
2018-08-27T16:09:18.906Z,23.40
2018-08-27T16:11:46.945Z,23.50
2018-08-27T16:14:14.950Z,23.50
2018-08-27T16:16:42.991Z,23.60
2018-08-27T16:19:11.257Z,23.60
2018-08-27T16:21:41.098Z,23.40
2018-08-27T16:24:09.149Z,23.30
2018-08-27T16:26:40.302Z,23.20
2018-08-27T16:29:08.530Z,23.10
2018-08-27T16:31:36.566Z,23.00
2018-08-27T16:34:04.565Z,22.80
2018-08-27T16:36:32.601Z,22.70
2018-08-27T16:39:00.685Z,22.60
2018-08-27T16:41:28.997Z,22.50
2018-08-27T16:43:57.013Z,22.50
2018-08-27T16:46:25.027Z,22.50
2018-08-27T16:48:53.170Z,22.50
2018-08-27T16:51:21.253Z,22.50
2018-08-27T16:53:49.253Z,22.60
2018-08-27T16:56:17.305Z,22.50
2018-08-27T16:58:45.328Z,22.50
2018-08-27T17:01:13.386Z,22.50
2018-08-27T17:03:41.433Z,22.50
2018-08-27T17:06:09.455Z,22.40
2018-08-27T17:08:37.489Z,22.50
2018-08-27T17:11:05.720Z,22.40
2018-08-27T17:13:33.801Z,22.40
2018-08-27T17:16:02.196Z,22.30
2018-08-27T17:18:30.213Z,22.20
2018-08-27T17:20:58.262Z,22.10
2018-08-27T17:23:26.264Z,22.00
2018-08-27T17:25:54.633Z,21.70
2018-08-27T17:28:22.705Z,21.70
2018-08-27T17:30:50.715Z,21.50
2018-08-27T17:33:18.753Z,21.40
2018-08-27T17:35:46.805Z,21.30
2018-08-27T17:38:14.814Z,21.20
2018-08-27T17:40:42.834Z,21.10
2018-08-27T17:43:10.860Z,21.00
2018-08-27T17:45:39.003Z,20.70
2018-08-27T17:48:06.913Z,20.60
2018-08-27T17:50:34.967Z,20.40
2018-08-27T17:53:02.974Z,20.20
2018-08-27T17:55:31.074Z,20.00
2018-08-27T17:57:59.148Z,19.80
2018-08-27T18:00:27.206Z,19.60
2018-08-27T18:02:55.254Z,19.40
2018-08-27T18:05:23.322Z,19.30
2018-08-27T18:07:51.873Z,19.20
2018-08-27T18:10:19.877Z,19.10
2018-08-27T18:12:47.874Z,19.00
2018-08-27T18:15:15.976Z,19.00
2018-08-27T18:17:44.014Z,19.10
2018-08-27T18:20:12.025Z,19.00
2018-08-27T18:22:40.195Z,18.80
2018-08-27T18:25:08.173Z,18.80
2018-08-27T18:27:36.133Z,18.90
2018-08-27T18:30:04.190Z,18.80
2018-08-27T18:32:32.250Z,18.70
2018-08-27T18:35:00.285Z,18.60
2018-08-27T18:37:28.413Z,18.40
2018-08-27T18:39:56.453Z,18.30
2018-08-27T18:42:24.461Z,18.10
2018-08-27T18:44:52.609Z,18.10
2018-08-27T18:47:20.652Z,18.10
2018-08-27T18:49:48.709Z,18.10
2018-08-27T18:52:16.728Z,17.90
2018-08-27T18:54:44.847Z,17.80
2018-08-27T18:57:13.444Z,17.70
2018-08-27T18:59:41.529Z,17.70
2018-08-27T19:02:09.561Z,17.80
2018-08-27T19:04:37.611Z,17.80
2018-08-27T19:07:05.982Z,17.80
2018-08-27T19:09:33.993Z,18.00
2018-08-27T19:12:02.017Z,18.00
2018-08-27T19:14:30.045Z,18.00
2018-08-27T19:16:58.094Z,18.10
2018-08-27T19:19:26.123Z,18.10
2018-08-27T19:21:54.117Z,18.10
2018-08-27T19:24:22.179Z,18.20
2018-08-27T19:26:50.250Z,18.20
2018-08-27T19:29:18.290Z,18.30
2018-08-27T19:31:46.334Z,18.30
2018-08-27T19:34:14.359Z,18.40
2018-08-27T19:36:43.579Z,18.50
2018-08-27T19:39:11.592Z,18.50
2018-08-27T19:41:39.600Z,18.60
2018-08-27T19:44:07.644Z,18.60
2018-08-27T19:46:35.641Z,18.60
2018-08-27T19:49:03.725Z,18.60
2018-08-27T19:51:31.781Z,18.60
2018-08-27T19:54:06.330Z,18.50
2018-08-27T19:56:34.406Z,18.50
2018-08-27T19:59:02.505Z,18.60
2018-08-27T20:01:30.910Z,18.50
2018-08-27T20:03:58.943Z,18.50
2018-08-27T20:06:26.971Z,18.50
2018-08-27T20:08:55.099Z,18.50
2018-08-27T20:11:23.124Z,18.40
2018-08-27T20:13:51.162Z,18.30
2018-08-27T20:16:19.318Z,18.30
2018-08-27T20:18:47.389Z,18.40
2018-08-27T20:21:15.465Z,18.40
2018-08-27T20:23:43.764Z,18.30
2018-08-27T20:26:11.871Z,18.40
2018-08-27T20:28:39.841Z,18.40
2018-08-27T20:31:07.844Z,18.40
2018-08-27T20:33:36.129Z,18.30
2018-08-27T20:36:04.180Z,18.40
2018-08-27T20:38:32.232Z,18.50
2018-08-27T20:41:00.464Z,18.50
2018-08-27T20:43:28.476Z,18.60
2018-08-27T20:45:56.610Z,18.70
2018-08-27T20:48:24.556Z,18.70
2018-08-27T20:50:53.047Z,18.80
2018-08-27T20:53:20.997Z,18.70
2018-08-27T20:55:49.053Z,18.80
2018-08-27T20:58:17.101Z,18.90
2018-08-27T21:00:45.109Z,18.90
2018-08-27T21:03:13.113Z,18.80
2018-08-27T21:05:41.298Z,18.80
2018-08-27T21:08:09.345Z,18.70
2018-08-27T21:10:37.431Z,18.70
2018-08-27T21:13:05.542Z,18.70
2018-08-27T21:15:33.533Z,18.60
2018-08-27T21:18:01.537Z,18.50
2018-08-27T21:20:29.637Z,18.40
2018-08-27T21:22:57.707Z,18.30
2018-08-27T21:25:25.654Z,18.30
2018-08-27T21:27:53.802Z,18.30
2018-08-27T21:30:22.298Z,18.30
2018-08-27T21:32:50.337Z,18.20
2018-08-27T21:35:18.346Z,18.20
2018-08-27T21:37:46.350Z,18.20
2018-08-27T21:40:14.466Z,18.20
2018-08-27T21:42:42.562Z,18.30
2018-08-27T21:45:10.922Z,18.30
2018-08-27T21:47:38.952Z,18.10
2018-08-27T21:50:07.017Z,18.10
2018-08-27T21:52:35.109Z,18.10
2018-08-27T21:55:03.282Z,18.00
2018-08-27T21:57:31.370Z,17.90
2018-08-27T21:59:59.417Z,17.80
2018-08-27T22:02:33.052Z,17.90
2018-08-27T22:05:01.089Z,17.90
2018-08-27T22:07:29.149Z,17.80
2018-08-27T22:09:57.172Z,17.80
2018-08-27T22:12:25.208Z,17.70
2018-08-27T22:14:53.284Z,17.60
2018-08-27T22:17:21.285Z,17.60
2018-08-27T22:19:49.326Z,17.60
2018-08-27T22:22:17.433Z,17.60
2018-08-27T22:24:45.328Z,17.60
2018-08-27T22:27:13.374Z,17.60
2018-08-27T22:29:41.445Z,17.60
2018-08-27T22:32:09.491Z,17.60
2018-08-27T22:34:37.495Z,17.60
2018-08-27T22:37:05.697Z,17.70
2018-08-27T22:39:34.080Z,17.70
2018-08-27T22:42:02.078Z,17.70
2018-08-27T22:44:30.077Z,17.80
2018-08-27T22:46:58.109Z,17.80
2018-08-27T22:49:26.365Z,17.70
2018-08-27T22:51:54.369Z,17.60
2018-08-27T22:54:22.429Z,17.60
2018-08-27T22:56:50.425Z,17.50
2018-08-27T22:59:18.437Z,17.60
2018-08-27T23:01:46.480Z,17.50
2018-08-27T23:04:20.037Z,17.50
2018-08-27T23:06:48.084Z,17.50
2018-08-27T23:09:16.140Z,17.50
2018-08-27T23:11:44.200Z,17.50
2018-08-27T23:14:12.237Z,17.50
2018-08-27T23:16:40.261Z,17.50
2018-08-27T23:19:08.345Z,17.50
2018-08-27T23:21:36.352Z,17.50
2018-08-27T23:24:04.349Z,17.50
2018-08-27T23:26:32.495Z,17.40
2018-08-27T23:29:00.493Z,17.40
2018-08-27T23:31:28.492Z,17.30
2018-08-27T23:33:56.538Z,17.30
2018-08-27T23:36:24.530Z,17.30
2018-08-27T23:38:52.575Z,17.30
2018-08-27T23:41:20.569Z,17.40
2018-08-27T23:43:48.612Z,17.30
2018-08-27T23:46:16.657Z,17.30
2018-08-27T23:48:44.662Z,17.30
2018-08-27T23:51:12.713Z,17.30
2018-08-27T23:53:40.761Z,17.30
2018-08-27T23:56:09.058Z,17.20
2018-08-27T23:58:37.078Z,17.30
